createdAt,value
2017-09-22T00:00:30.275Z,70.30
2017-09-22T00:02:57.730Z,70.40
2017-09-22T00:05:25.167Z,70.40
2017-09-22T00:07:53.383Z,70.50
2017-09-22T00:10:20.824Z,70.40
2017-09-22T00:12:48.279Z,70.40
2017-09-22T00:15:16.490Z,70.20
2017-09-22T00:17:43.931Z,70.90
2017-09-22T00:20:11.371Z,70.30
2017-09-22T00:22:39.580Z,70.60
2017-09-22T00:25:07.023Z,70.60
2017-09-22T00:27:35.232Z,70.70
2017-09-22T00:30:02.686Z,70.70
2017-09-22T00:32:30.128Z,70.80
2017-09-22T00:34:58.336Z,71.00
2017-09-22T00:37:25.789Z,70.80
2017-09-22T00:39:53.261Z,70.80
2017-09-22T00:42:20.715Z,70.80
2017-09-22T00:44:48.151Z,70.90
2017-09-22T00:47:16.387Z,71.10
2017-09-22T00:49:43.827Z,71.10
2017-09-22T00:52:11.271Z,71.20
2017-09-22T00:54:38.722Z,71.20
2017-09-22T00:57:06.924Z,71.20
2017-09-22T00:59:34.375Z,71.90
2017-09-22T01:02:01.815Z,71.20
2017-09-22T01:04:30.035Z,71.20
2017-09-22T01:06:57.470Z,71.20
2017-09-22T01:09:25.690Z,71.00
2017-09-22T01:11:53.135Z,71.00
2017-09-22T01:14:20.570Z,70.90
2017-09-22T01:16:48.792Z,71.00
2017-09-22T01:19:16.227Z,70.90
2017-09-22T01:21:43.682Z,71.20
2017-09-22T01:24:11.898Z,71.20
2017-09-22T01:26:39.349Z,71.10
2017-09-22T01:29:06.916Z,71.10
2017-09-22T01:31:34.341Z,71.20
2017-09-22T01:34:02.582Z,71.30
2017-09-22T01:36:30.047Z,71.20
2017-09-22T01:38:57.502Z,72.10
2017-09-22T01:41:24.950Z,71.40
2017-09-22T01:43:52.402Z,71.30
2017-09-22T01:46:19.872Z,71.30
2017-09-22T01:48:47.315Z,71.20
2017-09-22T01:51:14.755Z,71.20
2017-09-22T01:53:42.968Z,71.20
2017-09-22T01:56:10.416Z,71.20
2017-09-22T01:58:38.632Z,71.50
2017-09-22T02:01:06.073Z,71.50
2017-09-22T02:03:33.527Z,71.50
2017-09-22T02:06:00.962Z,71.60
2017-09-22T02:08:29.185Z,71.50
2017-09-22T02:10:56.626Z,71.50
2017-09-22T02:13:24.068Z,71.50
2017-09-22T02:15:52.283Z,71.50
2017-09-22T02:18:19.742Z,71.40
2017-09-22T02:20:47.195Z,71.40
2017-09-22T02:23:14.635Z,71.50
2017-09-22T02:25:42.863Z,71.50
2017-09-22T02:28:10.325Z,71.40
2017-09-22T02:30:37.791Z,71.40
2017-09-22T02:33:05.239Z,71.40
2017-09-22T02:35:32.696Z,71.40
2017-09-22T02:38:00.191Z,71.20
2017-09-22T02:40:27.626Z,71.30
2017-09-22T02:42:55.081Z,71.30
2017-09-22T02:45:22.522Z,71.30
2017-09-22T02:47:50.739Z,71.40
2017-09-22T02:50:18.193Z,71.40
2017-09-22T02:52:45.656Z,71.60
2017-09-22T02:55:13.091Z,71.70
2017-09-22T02:57:41.302Z,71.80
2017-09-22T03:00:08.764Z,71.70
2017-09-22T03:02:36.243Z,71.60
2017-09-22T03:05:03.700Z,71.60
2017-09-22T03:07:31.145Z,71.60
2017-09-22T03:09:58.627Z,71.70
2017-09-22T03:12:26.072Z,71.70
2017-09-22T03:14:53.517Z,71.70
2017-09-22T03:17:21.732Z,71.80
2017-09-22T03:19:49.170Z,71.80
2017-09-22T03:22:16.627Z,72.00
2017-09-22T03:24:44.075Z,72.00
2017-09-22T03:27:12.289Z,72.00
2017-09-22T03:29:39.721Z,71.90
2017-09-22T03:32:07.962Z,71.80
2017-09-22T03:34:35.426Z,71.80
2017-09-22T03:37:02.891Z,71.80
2017-09-22T03:39:30.359Z,71.90
2017-09-22T03:41:57.820Z,71.90
2017-09-22T03:44:25.271Z,71.90
2017-09-22T03:46:52.719Z,72.00
2017-09-22T03:49:20.172Z,72.00
2017-09-22T03:51:47.614Z,72.00
2017-09-22T03:54:15.092Z,72.00
2017-09-22T03:56:42.563Z,72.20
2017-09-22T03:59:10.019Z,72.40
2017-09-22T04:01:37.477Z,72.60
2017-09-22T04:04:04.928Z,72.50
2017-09-22T04:06:32.387Z,72.50
2017-09-22T04:08:59.831Z,72.50
2017-09-22T04:11:28.056Z,72.20
2017-09-22T04:13:55.510Z,72.20
2017-09-22T04:16:22.975Z,72.20
2017-09-22T04:18:50.424Z,72.30
2017-09-22T04:21:17.864Z,72.40
2017-09-22T04:23:46.096Z,72.50
2017-09-22T04:26:13.533Z,72.50
2017-09-22T04:28:40.999Z,72.60
2017-09-22T04:31:08.440Z,72.70
2017-09-22T04:33:36.672Z,72.90
2017-09-22T04:36:04.124Z,72.90
2017-09-22T04:38:31.577Z,72.80
2017-09-22T04:43:32.028Z,72.50
2017-09-22T04:45:59.485Z,72.50
2017-09-22T04:48:26.924Z,72.70
2017-09-22T04:50:55.140Z,72.70
2017-09-22T04:53:22.585Z,72.70
2017-09-22T04:55:50.056Z,72.70
2017-09-22T04:58:17.562Z,72.80
2017-09-22T05:00:45.020Z,72.80
2017-09-22T05:03:12.468Z,72.80
2017-09-22T05:05:40.715Z,72.60
2017-09-22T05:08:08.163Z,72.10
2017-09-22T05:10:36.371Z,72.60
2017-09-22T05:13:03.830Z,72.60
2017-09-22T05:15:31.288Z,72.60
2017-09-22T05:17:58.771Z,72.60
2017-09-22T05:20:26.220Z,72.80
2017-09-22T05:22:53.679Z,72.80
2017-09-22T05:25:21.153Z,72.70
2017-09-22T05:27:48.612Z,72.70
2017-09-22T05:30:16.075Z,72.90
2017-09-22T05:32:43.524Z,72.80
2017-09-22T05:35:10.975Z,72.90
2017-09-22T05:37:38.417Z,72.80
2017-09-22T05:40:06.644Z,72.80
2017-09-22T05:42:34.087Z,72.70
2017-09-22T05:45:01.560Z,73.00
2017-09-22T05:47:30.376Z,73.20
2017-09-22T05:49:57.852Z,73.10
2017-09-22T05:52:25.307Z,73.20
2017-09-22T05:54:52.753Z,73.10
2017-09-22T05:57:20.215Z,73.10
2017-09-22T05:59:47.655Z,73.10
2017-09-22T06:02:15.119Z,73.30
2017-09-22T06:04:42.567Z,73.20
2017-09-22T06:07:10.789Z,73.30
2017-09-22T06:09:38.243Z,73.30
2017-09-22T06:12:05.692Z,73.50
2017-09-22T06:14:33.137Z,73.50
2017-09-22T06:17:01.355Z,73.70
2017-09-22T06:19:28.819Z,73.70
2017-09-22T06:21:56.287Z,73.70
2017-09-22T06:24:23.743Z,73.80
2017-09-22T06:26:51.184Z,73.80
2017-09-22T06:29:18.643Z,74.00
2017-09-22T06:31:46.079Z,74.10
2017-09-22T06:34:14.308Z,74.20
2017-09-22T06:36:41.767Z,74.20
2017-09-22T06:39:09.234Z,74.20
2017-09-22T06:41:36.698Z,74.20
2017-09-22T06:44:04.924Z,74.50
2017-09-22T06:46:32.387Z,74.50
2017-09-22T06:48:59.822Z,74.50
2017-09-22T06:51:27.271Z,73.90
2017-09-22T06:53:54.719Z,74.60
2017-09-22T06:56:22.175Z,74.70
2017-09-22T06:58:49.631Z,74.70
2017-09-22T07:01:17.087Z,74.80
2017-09-22T07:03:44.536Z,75.00
2017-09-22T07:06:12.796Z,75.20
2017-09-22T07:08:40.240Z,75.00
2017-09-22T07:11:07.696Z,75.00
2017-09-22T07:13:35.141Z,75.00
2017-09-22T07:16:02.613Z,75.00
2017-09-22T07:18:30.081Z,75.00
2017-09-22T07:20:57.555Z,75.00
2017-09-22T07:23:25.027Z,75.00
2017-09-22T07:25:52.478Z,75.10
2017-09-22T07:28:19.952Z,75.00
2017-09-22T07:30:47.403Z,75.00
2017-09-22T07:33:14.863Z,75.00
2017-09-22T07:35:42.315Z,75.10
2017-09-22T07:38:09.770Z,75.00
2017-09-22T07:40:37.235Z,75.10
2017-09-22T07:43:04.691Z,75.20
2017-09-22T07:45:32.159Z,75.00
2017-09-22T07:47:59.616Z,75.20
2017-09-22T07:50:27.064Z,75.20
2017-09-22T07:52:54.507Z,75.10
2017-09-22T07:55:22.741Z,75.80
2017-09-22T07:57:50.179Z,74.90
2017-09-22T08:00:17.632Z,75.00
2017-09-22T08:02:45.076Z,75.00
2017-09-22T08:05:13.307Z,75.20
2017-09-22T08:07:40.756Z,75.00
2017-09-22T08:10:08.215Z,75.00
2017-09-22T08:12:35.670Z,75.10
2017-09-22T08:15:03.130Z,75.00
2017-09-22T08:17:30.599Z,75.00
2017-09-22T08:19:58.032Z,75.10
2017-09-22T08:22:26.252Z,75.10
2017-09-22T08:24:53.696Z,75.10
2017-09-22T08:27:21.151Z,75.10
2017-09-22T08:29:48.595Z,75.10
2017-09-22T08:32:16.835Z,75.10
2017-09-22T08:34:44.292Z,75.10
2017-09-22T08:37:11.757Z,75.10
2017-09-22T08:39:39.221Z,75.10
2017-09-22T08:42:06.668Z,75.00
2017-09-22T08:44:34.124Z,75.00
2017-09-22T08:47:01.572Z,74.90
2017-09-22T08:49:29.038Z,74.90
2017-09-22T08:51:56.484Z,74.90
2017-09-22T08:54:24.692Z,75.00
2017-09-22T08:56:52.151Z,74.90
2017-09-22T08:59:19.591Z,75.10
2017-09-22T09:01:47.819Z,75.50
2017-09-22T09:04:15.267Z,75.40
2017-09-22T09:06:42.720Z,75.40
2017-09-22T09:09:10.173Z,75.50
2017-09-22T09:11:37.632Z,75.60
2017-09-22T09:14:05.105Z,75.60
2017-09-22T09:16:32.543Z,75.60
2017-09-22T09:19:00.759Z,76.00
2017-09-22T09:21:28.218Z,75.90
2017-09-22T09:23:55.673Z,76.20
2017-09-22T09:26:23.116Z,76.10
2017-09-22T09:28:51.368Z,76.30
2017-09-22T09:31:18.812Z,76.20
2017-09-22T09:33:46.281Z,76.20
2017-09-22T09:36:13.715Z,76.30
2017-09-22T09:38:41.176Z,76.30
2017-09-22T09:41:08.628Z,76.20
2017-09-22T09:43:36.076Z,76.40
2017-09-22T09:46:03.528Z,76.50
2017-09-22T09:48:31.740Z,76.60
2017-09-22T09:50:59.215Z,76.60
2017-09-22T09:53:26.662Z,76.60
2017-09-22T09:55:54.123Z,76.80
2017-09-22T09:58:21.571Z,76.80
2017-09-22T10:00:49.028Z,76.80
2017-09-22T10:03:17.247Z,77.00
2017-09-22T10:05:44.689Z,77.00
2017-09-22T10:08:12.135Z,76.90
2017-09-22T10:10:39.575Z,76.60
2017-09-22T10:13:07.214Z,76.50
2017-09-22T10:15:34.661Z,76.50
2017-09-22T10:18:02.091Z,76.60
2017-09-22T10:20:29.564Z,76.40
2017-09-22T10:22:57.007Z,76.50
2017-09-22T10:25:25.223Z,76.60
2017-09-22T10:27:52.672Z,76.50
2017-09-22T10:30:20.123Z,76.60
2017-09-22T10:32:47.579Z,76.50
2017-09-22T10:35:15.035Z,76.50
2017-09-22T10:37:43.251Z,76.50
2017-09-22T10:40:10.711Z,76.50
2017-09-22T10:42:38.192Z,76.40
2017-09-22T10:45:05.657Z,76.40
2017-09-22T10:47:33.272Z,76.30
2017-09-22T10:50:01.480Z,76.50
2017-09-22T10:52:28.951Z,76.50
2017-09-22T10:54:56.403Z,76.40
2017-09-22T10:57:23.855Z,76.30
2017-09-22T10:59:51.316Z,76.10
2017-09-22T11:02:18.772Z,76.10
2017-09-22T11:04:47.007Z,75.80
2017-09-22T11:07:14.451Z,75.80
2017-09-22T11:09:41.920Z,75.60
2017-09-22T11:12:09.375Z,75.50
2017-09-22T11:14:36.831Z,75.20
2017-09-22T11:17:04.289Z,74.30
2017-09-22T11:19:31.763Z,74.60
2017-09-22T11:21:59.211Z,74.20
2017-09-22T11:24:26.655Z,74.10
2017-09-22T11:26:54.114Z,74.00
2017-09-22T11:29:22.320Z,73.30
2017-09-22T11:31:49.275Z,73.10
2017-09-22T11:34:16.721Z,72.50
2017-09-22T11:36:44.176Z,72.00
2017-09-22T11:39:11.620Z,71.20
2017-09-22T11:41:39.866Z,71.50
2017-09-22T11:44:07.303Z,71.60
2017-09-22T11:46:34.781Z,71.20
2017-09-22T11:49:02.228Z,70.30
2017-09-22T11:51:29.675Z,70.60
2017-09-22T11:53:57.130Z,70.90
2017-09-22T11:56:24.587Z,70.60
2017-09-22T11:58:52.799Z,70.00
2017-09-22T12:01:20.250Z,70.00
2017-09-22T12:03:47.711Z,69.50
2017-09-22T12:06:15.221Z,69.50
2017-09-22T12:08:42.732Z,69.30
2017-09-22T12:11:10.170Z,68.90
2017-09-22T12:13:38.382Z,68.60
2017-09-22T12:16:05.847Z,68.50
2017-09-22T12:18:33.287Z,68.10
2017-09-22T12:21:01.512Z,67.70
2017-09-22T12:23:28.951Z,67.70
2017-09-22T12:25:56.407Z,67.70
2017-09-22T12:28:23.849Z,67.50
2017-09-22T12:30:52.092Z,66.90
2017-09-22T12:33:19.544Z,66.80
2017-09-22T12:35:46.984Z,66.10
2017-09-22T12:38:14.507Z,66.60
2017-09-22T12:40:42.001Z,66.60
2017-09-22T12:43:09.452Z,66.40
2017-09-22T12:45:36.904Z,66.20
2017-09-22T12:48:05.128Z,66.10
2017-09-22T12:50:32.576Z,66.00
2017-09-22T12:53:00.033Z,65.50
2017-09-22T12:55:27.484Z,66.00
2017-09-22T12:57:55.733Z,66.10
2017-09-22T13:00:23.180Z,66.20
2017-09-22T13:02:50.616Z,66.10
2017-09-22T13:05:18.072Z,66.10
2017-09-22T13:07:45.512Z,66.00
2017-09-22T13:10:13.736Z,65.80
2017-09-22T13:12:41.197Z,65.80
2017-09-22T13:15:08.660Z,65.70
2017-09-22T13:17:36.111Z,65.40
2017-09-22T13:20:03.568Z,65.70
2017-09-22T13:22:31.012Z,65.40
2017-09-22T13:24:58.532Z,65.60
2017-09-22T13:27:25.963Z,65.60
2017-09-22T13:29:53.417Z,65.40
2017-09-22T13:32:20.880Z,64.90
2017-09-22T13:34:48.323Z,65.10
2017-09-22T13:37:15.792Z,65.10
2017-09-22T13:39:43.248Z,65.30
2017-09-22T13:42:10.712Z,65.30
2017-09-22T13:44:38.151Z,65.30
2017-09-22T13:47:06.392Z,65.30
2017-09-22T13:49:33.856Z,65.20
2017-09-22T13:52:01.327Z,65.70
2017-09-22T13:54:28.772Z,65.60
2017-09-22T13:56:56.219Z,65.60
2017-09-22T13:59:23.667Z,65.10
2017-09-22T14:01:51.113Z,64.40
2017-09-22T14:04:19.323Z,64.90
2017-09-22T14:06:46.772Z,64.90
2017-09-22T14:09:14.986Z,64.90
2017-09-22T14:11:42.428Z,64.70
2017-09-22T14:14:09.876Z,64.70
2017-09-22T14:16:38.140Z,64.30
2017-09-22T14:19:06.376Z,64.50
2017-09-22T14:21:33.827Z,64.50
2017-09-22T14:24:01.273Z,63.90
2017-09-22T14:26:28.725Z,63.50
2017-09-22T14:28:56.180Z,63.60
2017-09-22T14:31:24.396Z,62.80
2017-09-22T14:33:51.847Z,62.70
2017-09-22T14:36:19.320Z,62.30
2017-09-22T14:38:46.768Z,63.00
2017-09-22T14:41:14.220Z,63.10
2017-09-22T14:43:41.679Z,63.10
2017-09-22T14:46:09.891Z,63.30
2017-09-22T14:48:37.360Z,63.30
2017-09-22T14:51:04.803Z,63.30
2017-09-22T14:53:32.259Z,63.50
2017-09-22T14:55:59.703Z,63.50
2017-09-22T14:58:27.942Z,63.60
2017-09-22T15:00:55.375Z,63.60
2017-09-22T15:03:22.812Z,63.70
2017-09-22T15:05:51.037Z,63.90
2017-09-22T15:08:18.482Z,63.90
2017-09-22T15:10:45.936Z,63.90
2017-09-22T15:13:13.378Z,64.10
2017-09-22T15:15:40.839Z,64.20
2017-09-22T15:18:09.048Z,63.90
2017-09-22T15:20:36.519Z,63.90
2017-09-22T15:23:03.960Z,64.10
2017-09-22T15:25:31.433Z,63.90
2017-09-22T15:27:58.867Z,63.80
2017-09-22T15:30:27.084Z,63.60
2017-09-22T15:32:54.547Z,63.60
2017-09-22T15:35:21.988Z,63.50
2017-09-22T15:37:49.458Z,63.50
2017-09-22T15:40:16.891Z,63.60
2017-09-22T15:42:45.112Z,63.90
2017-09-22T15:45:12.554Z,63.90
2017-09-22T15:47:40.005Z,64.00
2017-09-22T15:50:08.210Z,64.30
2017-09-22T15:52:35.679Z,64.30
2017-09-22T15:55:03.151Z,64.20
2017-09-22T15:57:30.601Z,64.30
2017-09-22T15:59:58.069Z,64.30
2017-09-22T16:02:25.507Z,64.50
2017-09-22T16:04:52.954Z,64.60
2017-09-22T16:07:21.189Z,64.70
2017-09-22T16:09:48.633Z,64.70
2017-09-22T16:12:16.083Z,64.80
2017-09-22T16:14:43.518Z,64.90
2017-09-22T16:17:11.734Z,65.10
2017-09-22T16:19:39.195Z,65.10
2017-09-22T16:22:06.639Z,65.40
2017-09-22T16:24:34.092Z,65.60
2017-09-22T16:27:02.307Z,65.90
2017-09-22T16:29:29.763Z,65.90
2017-09-22T16:31:57.241Z,66.00
2017-09-22T16:34:24.672Z,66.30
2017-09-22T16:36:52.143Z,66.30
2017-09-22T16:39:19.585Z,66.40
2017-09-22T16:41:47.814Z,66.30
2017-09-22T16:44:15.260Z,66.30
2017-09-22T16:46:42.699Z,66.50
2017-09-22T16:49:10.152Z,66.60
2017-09-22T16:51:38.356Z,66.80
2017-09-22T16:54:05.818Z,66.80
2017-09-22T16:56:33.252Z,66.80
2017-09-22T16:59:01.467Z,67.20
2017-09-22T17:01:28.908Z,67.10
2017-09-22T17:03:56.356Z,67.30
2017-09-22T17:06:24.566Z,67.70
2017-09-22T17:08:52.031Z,67.70
2017-09-22T17:11:19.475Z,67.90
2017-09-22T17:13:46.916Z,68.20
2017-09-22T17:16:15.137Z,69.60
2017-09-22T17:18:42.627Z,68.60
2017-09-22T17:21:10.076Z,68.80
2017-09-22T17:23:37.532Z,69.00
2017-09-22T17:26:04.974Z,69.10
2017-09-22T17:28:32.421Z,69.20
2017-09-22T17:31:00.640Z,69.60
2017-09-22T17:33:28.088Z,69.50
2017-09-22T17:35:55.562Z,69.70
2017-09-22T17:38:23.015Z,69.80
2017-09-22T17:40:50.451Z,69.90
2017-09-22T17:43:18.667Z,70.00
2017-09-22T17:45:46.099Z,70.00
2017-09-22T17:56:55.014Z,70.50
2017-09-22T17:59:22.445Z,70.80
2017-09-22T18:01:49.877Z,70.90
2017-09-22T18:04:18.076Z,71.20
2017-09-22T18:06:45.513Z,71.20
2017-09-22T18:09:13.739Z,71.40
2017-09-22T18:11:41.180Z,72.00
2017-09-22T18:14:08.613Z,71.60
2017-09-22T18:16:36.812Z,72.80
2017-09-22T18:19:04.246Z,72.70
2017-09-22T18:21:32.457Z,73.60
2017-09-22T18:23:59.886Z,73.20
2017-09-22T18:26:27.324Z,73.40
2017-09-22T18:28:54.763Z,73.40
2017-09-22T18:31:22.207Z,73.70
2017-09-22T18:33:49.634Z,74.10
2017-09-22T18:36:17.073Z,74.10
2017-09-22T18:38:44.499Z,74.20
2017-09-22T18:41:11.945Z,74.30
2017-09-22T18:43:39.397Z,75.20
2017-09-22T18:46:07.584Z,74.90
2017-09-22T18:48:35.088Z,74.80
2017-09-22T18:51:02.533Z,74.90
2017-09-22T18:53:30.581Z,75.00
2017-09-22T18:55:58.785Z,75.20
2017-09-22T18:58:26.239Z,75.20
2017-09-22T19:00:53.668Z,75.50
2017-09-22T19:03:21.153Z,75.50
2017-09-22T19:05:49.374Z,75.70
2017-09-22T19:08:16.815Z,75.70
2017-09-22T19:10:44.256Z,75.70
2017-09-22T19:13:12.485Z,76.00
2017-09-22T19:15:39.926Z,76.00
2017-09-22T19:18:07.362Z,76.10
2017-09-22T19:20:35.573Z,76.40
2017-09-22T19:23:03.014Z,76.40
2017-09-22T19:25:30.457Z,76.40
2017-09-22T19:27:58.655Z,76.70
2017-09-22T19:30:26.117Z,76.60
2017-09-22T19:32:53.553Z,76.70
2017-09-22T19:35:20.990Z,76.90
2017-09-22T19:37:48.447Z,77.00
2017-09-22T19:40:15.889Z,77.00
2017-09-22T19:42:43.353Z,77.10
2017-09-22T19:45:10.810Z,77.00
2017-09-22T19:47:38.263Z,77.20
2017-09-22T19:50:05.706Z,77.30
2017-09-22T19:52:33.913Z,77.50
2017-09-22T19:55:01.340Z,77.50
2017-09-22T19:57:29.567Z,77.50
2017-09-22T19:59:57.024Z,77.30
2017-09-22T20:02:24.436Z,77.40
2017-09-22T20:04:51.873Z,78.10
2017-09-22T20:07:19.317Z,77.50
2017-09-22T20:09:46.746Z,77.50
2017-09-22T20:12:14.185Z,77.50
2017-09-22T20:14:41.615Z,77.50
2017-09-22T20:17:09.054Z,77.60
2017-09-22T20:19:36.524Z,77.60
2017-09-22T20:22:03.964Z,77.70
2017-09-22T20:24:32.154Z,78.00
2017-09-22T20:26:59.592Z,78.00
2017-09-22T20:29:27.794Z,78.20
2017-09-22T20:31:55.242Z,78.20
2017-09-22T20:34:23.438Z,78.50
2017-09-22T20:36:50.882Z,78.30
2017-09-22T20:39:18.330Z,78.30
2017-09-22T20:41:46.528Z,78.50
2017-09-22T20:44:13.973Z,78.40
2017-09-22T20:46:42.213Z,78.50
2017-09-22T20:49:09.645Z,78.50
2017-09-22T20:51:37.078Z,78.50
2017-09-22T20:54:05.282Z,78.60
2017-09-22T20:56:32.713Z,78.60
2017-09-22T20:59:00.141Z,78.50
2017-09-22T21:01:27.576Z,77.90
2017-09-22T21:03:55.013Z,78.60
2017-09-22T21:06:23.230Z,78.60
2017-09-22T21:08:50.666Z,78.60
2017-09-22T21:11:18.098Z,78.70
2017-09-22T21:13:45.551Z,78.70
2017-09-22T21:16:12.986Z,79.60
2017-09-22T21:18:40.427Z,79.10
2017-09-22T21:21:07.861Z,79.10
2017-09-22T21:23:36.058Z,79.30
2017-09-22T21:26:03.489Z,79.20
2017-09-22T21:28:30.925Z,79.20
2017-09-22T21:30:58.368Z,79.10
2017-09-22T21:33:25.801Z,79.10
2017-09-22T21:35:53.256Z,79.10
2017-09-22T21:38:21.462Z,79.10
2017-09-22T21:40:48.900Z,79.00
2017-09-22T21:43:17.114Z,79.10
2017-09-22T21:45:44.559Z,79.00
2017-09-22T21:48:11.996Z,79.10
2017-09-22T21:50:40.202Z,79.20
2017-09-22T21:53:07.628Z,79.10
2017-09-22T21:55:35.832Z,79.50
2017-09-22T21:58:03.270Z,79.20
2017-09-22T22:00:30.693Z,79.20
2017-09-22T22:03:03.951Z,79.20
2017-09-22T22:05:34.580Z,79.30
2017-09-22T22:08:02.797Z,79.40
2017-09-22T22:10:30.229Z,79.40
2017-09-22T22:12:57.692Z,79.30
2017-09-22T22:15:25.125Z,79.40
2017-09-22T22:17:52.561Z,79.50
2017-09-22T22:20:19.997Z,79.70
2017-09-22T22:22:47.442Z,79.50
2017-09-22T22:25:14.887Z,79.40
2017-09-22T22:27:43.088Z,79.50
2017-09-22T22:30:10.530Z,79.50
2017-09-22T22:32:38.726Z,79.50
2017-09-22T22:35:06.185Z,79.50
2017-09-22T22:37:33.616Z,80.20
2017-09-22T22:40:01.044Z,79.40
2017-09-22T22:42:28.483Z,79.40
2017-09-22T22:44:55.918Z,79.40
2017-09-22T22:47:24.134Z,79.50
2017-09-22T22:49:51.581Z,79.50
2017-09-22T22:52:19.016Z,79.50
2017-09-22T22:54:47.214Z,78.90
2017-09-22T22:57:15.414Z,79.60
2017-09-22T22:59:42.857Z,79.60
2017-09-22T23:02:10.289Z,79.60
2017-09-22T23:04:37.733Z,79.60
2017-09-22T23:07:05.166Z,79.70
2017-09-22T23:09:32.605Z,79.70
2017-09-22T23:12:00.959Z,79.70
2017-09-22T23:14:28.406Z,79.70
2017-09-22T23:16:55.842Z,79.70
2017-09-22T23:19:23.311Z,79.70
2017-09-22T23:21:50.751Z,79.80
2017-09-22T23:24:18.184Z,79.80
2017-09-22T23:26:45.615Z,79.70
2017-09-22T23:29:13.045Z,79.60
2017-09-22T23:31:40.492Z,79.70
2017-09-22T23:34:07.935Z,79.90
2017-09-22T23:36:35.352Z,79.80
2017-09-22T23:39:02.802Z,79.90
2017-09-22T23:41:30.269Z,79.80
2017-09-22T23:43:57.706Z,79.80
2017-09-22T23:46:25.135Z,79.70
2017-09-22T23:48:52.584Z,79.70
2017-09-22T23:51:20.027Z,79.90
2017-09-22T23:53:47.457Z,79.80
2017-09-22T23:56:14.894Z,79.80
2017-09-22T23:58:43.092Z,80.00
